DSNT2: Lake Texoma, Denison Dam

Data processed at Wed May 24 2017 21:09


All information presented herein is the property of the government of the United States of America and may be revised or deleted at any time without prior notice.
Dissemination of this information without the expressed written consent of the Public Affairs Office, Tulsa District U.S. Army Corps of Engineers is strictly prohibited.
These data are gathered electronically and, as presented, have not undergone any form of quality control. These data are not guaranteed to be valid or correct.
Go to home page.
Go to station list.
Go to home page.

Upstream stations:

Downstream station:
Previous Day
Next Day
Current Day
    
SHEF ID:       DSNT2     Lake Texoma, Denison Dam
STATION TYPE:  Reservoir
Normal Pool:  Bottom =   590.00, Top =   618.12

               PRECIP PRECIP(A) ELEVATION   STORAGE   TW-ELEV    INFLOW   RELEASE  AIR-TEMP  WIND-DIRWIND-SPEED REL-HUMID SOLAR-RAD   VOLTAGE  BAT-LOAD
                   in        in        ft     ac-ft        ft       cfs       cfs         F       deg       mph         %      W/m2      volt      volt
              Ccp-Rev   Ccp-Rev   Ccp-Rev   Ccp-Rev   Ccp-Rev  Regi-Rev  Regi-Rev   Ccp-Rev   Ccp-Rev   Ccp-Rev   Ccp-Rev   Ccp-Rev   Ccp-Rev   Ccp-Rev
(US/Central)
05/24 00:00      0.00      0.00    618.73   2651470    501.83     32931        19     60.21    256.80     10.43     79.23      0.00     13.72     13.48
05/24 01:00      0.00      0.00    618.79   2656270    501.83     34867        19     63.18    267.50     11.35     74.23      0.00     13.72     13.48
05/24 02:00      0.00      0.00    618.81   2657870    501.83     32931        19     63.72    319.50     15.19     65.25      0.00     13.72     13.48
05/24 03:00      0.00      0.00    618.84   2660270    501.83     32931        19     62.73    319.00     11.73     67.45      0.00     13.71     13.48
05/24 04:00      0.00      0.00    618.87   2662670    501.84     27123        19     61.97    327.80     10.26     67.33      0.00     13.72     13.48
05/24 05:00      0.00      0.00    618.90   2665070    501.83     29059        19     61.75    316.50     17.45     63.79      0.00     13.71     13.48
05/24 06:00      0.00      0.00    618.93   2667470    501.84     29219        19     60.76    311.90     20.44     63.00      0.00     13.71     13.48
05/24 07:00      0.00      0.00    618.96   2669870    501.84     33404        19     60.53    331.50     19.03     64.89     52.00     13.71     13.48
05/24 08:00      0.00      0.00    618.98   2671470    505.08     33717     10500     59.88    318.70     20.70     64.83    266.00     13.71     13.48
05/24 09:00      0.00      0.00    619.02   2674733    509.95     34032     10500     61.09    326.50     20.37     54.63    496.00     13.71     13.48
05/24 10:00      0.00      0.00    619.04   2676396    509.54     34344     10500     62.40    322.60     18.95     54.27    711.00     13.71     13.48
05/24 11:00      0.00      0.00    619.06   2678060    509.56     30472     10500     63.84    320.30     21.80     51.46    891.00      ----      ----
05/24 12:00      0.00      0.00    619.08   2679723    509.56     22576     10500     65.70    313.10     18.48     45.54    698.00     13.71     13.48
05/24 13:00      0.00      0.00    619.08   2679723    509.58     24589     10500     67.57    317.90     19.30     46.09   1083.00     13.71     13.48
05/24 14:00      0.00      0.00    619.08   2679723    509.53     18549     10500     69.22    310.50     15.46     42.06   1085.00     13.71     13.48
05/24 15:00      0.00      0.00    619.11   2682218    509.58     18549     10500     70.54    305.90     19.62     39.56   1053.00     13.71     13.07
05/24 16:00      0.00      0.00    619.10   2681386    509.40     16538     10500     71.85    302.70     17.21     39.74    813.00     13.71     13.48
05/24 17:00      0.00      0.00    619.12   2683049    509.37     22576     10500     72.95    300.50     14.53     35.83    747.00     13.71     13.48
05/24 18:00      0.00      0.00    619.11   2682218    509.30     14527     10500     73.72    310.80     12.26     38.82    538.00     13.71     13.48
05/24 19:00      0.00      0.00    619.14   2684713    509.44     30627     10500     74.71    313.90      6.03     37.05    212.00     13.71     13.48
05/24 20:00      0.00      0.00    619.14   2684713    509.41      -901      -901     73.51     57.60      1.33     41.81    101.00     13.72     13.48
05/24 21:00      0.00      0.00    619.16   2686376    509.41      ----      ----     70.21    137.10      2.56     47.86      1.00     13.72     13.48
05/24 22:00      ----      ----      ----      ----      ----      ----      ----      ----      ----      ----      ----      ----      ----      ----
05/24 23:00      ----      ----      ----      ----      ----      ----      ----      ----      ----      ----      ----      ----      ----      ----